sensor_id;sensor_type;location;lat;lon;timestamp;P1;durP1;ratioP1;P2;durP2;ratioP2
18138;SDS011;9195;53.176;9.486;2022-12-05T00:01:11;3.80;;;3.70;;
18138;SDS011;9195;53.176;9.486;2022-12-05T00:03:44;4.10;;;4.00;;
18138;SDS011;9195;53.176;9.486;2022-12-05T00:06:11;3.97;;;3.87;;
18138;SDS011;9195;53.176;9.486;2022-12-05T00:08:36;3.87;;;3.77;;
18138;SDS011;9195;53.176;9.486;2022-12-05T00:11:02;3.90;;;3.80;;
18138;SDS011;9195;53.176;9.486;2022-12-05T00:13:28;3.90;;;3.80;;
18138;SDS011;9195;53.176;9.486;2022-12-05T00:15:54;4.00;;;3.90;;
18138;SDS011;9195;53.176;9.486;2022-12-05T00:18:19;3.87;;;3.77;;
18138;SDS011;9195;53.176;9.486;2022-12-05T00:20:46;3.90;;;3.80;;
18138;SDS011;9195;53.176;9.486;2022-12-05T00:23:13;3.70;;;3.60;;
18138;SDS011;9195;53.176;9.486;2022-12-05T00:25:39;3.73;;;3.63;;
18138;SDS011;9195;53.176;9.486;2022-12-05T00:28:05;3.60;;;3.50;;
18138;SDS011;9195;53.176;9.486;2022-12-05T00:30:30;3.90;;;3.80;;
18138;SDS011;9195;53.176;9.486;2022-12-05T00:32:56;4.00;;;3.90;;
18138;SDS011;9195;53.176;9.486;2022-12-05T00:35:22;3.70;;;3.60;;
18138;SDS011;9195;53.176;9.486;2022-12-05T00:37:48;3.93;;;3.83;;
18138;SDS011;9195;53.176;9.486;2022-12-05T00:40:13;4.13;;;4.03;;
18138;SDS011;9195;53.176;9.486;2022-12-05T00:42:39;3.60;;;3.50;;
18138;SDS011;9195;53.176;9.486;2022-12-05T00:45:05;3.60;;;3.50;;
18138;SDS011;9195;53.176;9.486;2022-12-05T00:47:33;3.60;;;3.50;;
18138;SDS011;9195;53.176;9.486;2022-12-05T00:50:00;3.70;;;3.60;;
18138;SDS011;9195;53.176;9.486;2022-12-05T00:52:25;4.00;;;3.90;;
18138;SDS011;9195;53.176;9.486;2022-12-05T00:54:51;4.10;;;4.00;;
18138;SDS011;9195;53.176;9.486;2022-12-05T00:57:17;3.70;;;3.60;;
18138;SDS011;9195;53.176;9.486;2022-12-05T00:59:42;3.50;;;3.40;;
18138;SDS011;9195;53.176;9.486;2022-12-05T01:02:08;3.50;;;3.40;;
18138;SDS011;9195;53.176;9.486;2022-12-05T01:04:34;3.77;;;3.67;;
18138;SDS011;9195;53.176;9.486;2022-12-05T01:07:00;3.70;;;3.60;;
18138;SDS011;9195;53.176;9.486;2022-12-05T01:09:26;3.80;;;3.70;;
18138;SDS011;9195;53.176;9.486;2022-12-05T01:11:51;3.50;;;3.40;;
18138;SDS011;9195;53.176;9.486;2022-12-05T01:14:18;3.60;;;3.50;;
18138;SDS011;9195;53.176;9.486;2022-12-05T01:16:45;3.40;;;3.30;;
18138;SDS011;9195;53.176;9.486;2022-12-05T01:19:13;3.60;;;3.50;;
18138;SDS011;9195;53.176;9.486;2022-12-05T01:21:41;3.40;;;3.30;;
18138;SDS011;9195;53.176;9.486;2022-12-05T01:24:07;3.53;;;3.43;;
18138;SDS011;9195;53.176;9.486;2022-12-05T01:26:34;3.40;;;3.30;;
18138;SDS011;9195;53.176;9.486;2022-12-05T01:29:00;3.50;;;3.40;;
18138;SDS011;9195;53.176;9.486;2022-12-05T01:31:27;3.20;;;3.10;;
18138;SDS011;9195;53.176;9.486;2022-12-05T01:33:55;3.30;;;3.20;;
18138;SDS011;9195;53.176;9.486;2022-12-05T01:36:22;3.30;;;3.20;;
18138;SDS011;9195;53.176;9.486;2022-12-05T01:38:49;3.33;;;3.23;;
18138;SDS011;9195;53.176;9.486;2022-12-05T01:41:16;3.40;;;3.30;;
18138;SDS011;9195;53.176;9.486;2022-12-05T01:46:22;3.27;;;3.17;;
18138;SDS011;9195;53.176;9.486;2022-12-05T01:48:48;3.50;;;3.40;;
18138;SDS011;9195;53.176;9.486;2022-12-05T01:51:15;3.23;;;3.13;;
18138;SDS011;9195;53.176;9.486;2022-12-05T01:53:41;3.47;;;3.37;;
18138;SDS011;9195;53.176;9.486;2022-12-05T01:56:07;3.37;;;3.27;;
18138;SDS011;9195;53.176;9.486;2022-12-05T01:58:34;3.43;;;3.33;;
18138;SDS011;9195;53.176;9.486;2022-12-05T02:01:02;3.40;;;3.30;;
18138;SDS011;9195;53.176;9.486;2022-12-05T02:03:27;3.50;;;3.40;;
18138;SDS011;9195;53.176;9.486;2022-12-05T02:05:53;3.27;;;3.17;;
18138;SDS011;9195;53.176;9.486;2022-12-05T02:08:21;3.40;;;3.30;;
18138;SDS011;9195;53.176;9.486;2022-12-05T02:10:49;3.30;;;3.20;;
18138;SDS011;9195;53.176;9.486;2022-12-05T02:29:52;3.40;;;3.30;;
18138;SDS011;9195;53.176;9.486;2022-12-05T02:40:14;3.50;;;3.40;;
18138;SDS011;9195;53.176;9.486;2022-12-05T02:43:04;3.20;;;3.10;;
18138;SDS011;9195;53.176;9.486;2022-12-05T02:45:35;3.70;;;3.60;;
18138;SDS011;9195;53.176;9.486;2022-12-05T02:48:03;3.60;;;3.50;;
18138;SDS011;9195;53.176;9.486;2022-12-05T02:50:32;3.40;;;3.30;;
18138;SDS011;9195;53.176;9.486;2022-12-05T02:53:03;3.50;;;3.40;;
18138;SDS011;9195;53.176;9.486;2022-12-05T02:55:33;3.20;;;3.10;;
18138;SDS011;9195;53.176;9.486;2022-12-05T02:58:01;3.63;;;3.53;;
18138;SDS011;9195;53.176;9.486;2022-12-05T03:00:30;3.50;;;3.40;;
18138;SDS011;9195;53.176;9.486;2022-12-05T03:02:59;3.50;;;3.40;;
18138;SDS011;9195;53.176;9.486;2022-12-05T03:05:36;3.30;;;3.20;;
18138;SDS011;9195;53.176;9.486;2022-12-05T03:08:14;3.40;;;3.30;;
18138;SDS011;9195;53.176;9.486;2022-12-05T03:10:45;3.60;;;3.50;;
18138;SDS011;9195;53.176;9.486;2022-12-05T03:13:26;3.60;;;3.50;;
18138;SDS011;9195;53.176;9.486;2022-12-05T03:15:58;3.50;;;3.40;;
18138;SDS011;9195;53.176;9.486;2022-12-05T03:18:31;3.40;;;3.30;;
18138;SDS011;9195;53.176;9.486;2022-12-05T03:21:18;3.30;;;3.20;;
18138;SDS011;9195;53.176;9.486;2022-12-05T03:23:57;3.37;;;3.27;;
18138;SDS011;9195;53.176;9.486;2022-12-05T03:29:15;3.30;;;3.20;;
18138;SDS011;9195;53.176;9.486;2022-12-05T03:31:54;3.20;;;3.10;;
18138;SDS011;9195;53.176;9.486;2022-12-05T03:34:35;3.40;;;3.30;;
18138;SDS011;9195;53.176;9.486;2022-12-05T03:40:09;3.37;;;3.27;;
18138;SDS011;9195;53.176;9.486;2022-12-05T03:42:57;3.37;;;3.27;;
18138;SDS011;9195;53.176;9.486;2022-12-05T03:45:35;3.20;;;3.10;;
18138;SDS011;9195;53.176;9.486;2022-12-05T03:48:12;3.30;;;3.20;;
18138;SDS011;9195;53.176;9.486;2022-12-05T03:50:43;3.37;;;3.27;;
18138;SDS011;9195;53.176;9.486;2022-12-05T03:53:14;3.27;;;3.17;;
18138;SDS011;9195;53.176;9.486;2022-12-05T03:55:44;3.20;;;3.10;;
18138;SDS011;9195;53.176;9.486;2022-12-05T03:58:58;3.10;;;3.00;;
18138;SDS011;9195;53.176;9.486;2022-12-05T04:01:17;3.20;;;3.10;;
18138;SDS011;9195;53.176;9.486;2022-12-05T04:03:47;3.13;;;3.03;;
18138;SDS011;9195;53.176;9.486;2022-12-05T04:09:03;3.53;;;3.43;;
18138;SDS011;9195;53.176;9.486;2022-12-05T04:11:34;3.13;;;3.03;;
18138;SDS011;9195;53.176;9.486;2022-12-05T04:14:08;3.30;;;3.20;;
18138;SDS011;9195;53.176;9.486;2022-12-05T04:16:43;3.60;;;3.50;;
18138;SDS011;9195;53.176;9.486;2022-12-05T04:22:42;4.80;;;4.60;;
18138;SDS011;9195;53.176;9.486;2022-12-05T04:25:10;5.07;;;4.87;;
18138;SDS011;9195;53.176;9.486;2022-12-05T04:42:19;4.80;;;4.60;;
18138;SDS011;9195;53.176;9.486;2022-12-05T04:44:54;5.03;;;4.83;;
18138;SDS011;9195;53.176;9.486;2022-12-05T04:47:26;4.50;;;4.30;;
18138;SDS011;9195;53.176;9.486;2022-12-05T04:49:55;4.40;;;4.20;;
18138;SDS011;9195;53.176;9.486;2022-12-05T04:52:22;3.20;;;3.10;;
18138;SDS011;9195;53.176;9.486;2022-12-05T04:54:51;3.30;;;3.20;;
18138;SDS011;9195;53.176;9.486;2022-12-05T04:57:30;3.50;;;3.40;;
18138;SDS011;9195;53.176;9.486;2022-12-05T05:00:15;3.77;;;3.67;;
18138;SDS011;9195;53.176;9.486;2022-12-05T05:02:46;4.00;;;3.90;;
18138;SDS011;9195;53.176;9.486;2022-12-05T05:05:16;3.90;;;3.80;;
18138;SDS011;9195;53.176;9.486;2022-12-05T05:07:52;3.50;;;3.40;;
18138;SDS011;9195;53.176;9.486;2022-12-05T05:10:20;4.03;;;3.93;;
18138;SDS011;9195;53.176;9.486;2022-12-05T05:12:53;4.20;;;4.10;;
18138;SDS011;9195;53.176;9.486;2022-12-05T05:15:19;3.90;;;3.80;;
18138;SDS011;9195;53.176;9.486;2022-12-05T05:17:44;4.70;;;4.50;;
18138;SDS011;9195;53.176;9.486;2022-12-05T05:20:10;4.70;;;4.50;;
18138;SDS011;9195;53.176;9.486;2022-12-05T05:22:50;4.60;;;4.40;;
18138;SDS011;9195;53.176;9.486;2022-12-05T05:25:18;4.93;;;4.73;;
18138;SDS011;9195;53.176;9.486;2022-12-05T05:27:48;4.80;;;4.60;;
18138;SDS011;9195;53.176;9.486;2022-12-05T05:30:15;5.20;;;5.00;;
18138;SDS011;9195;53.176;9.486;2022-12-05T05:32:41;5.40;;;5.20;;
18138;SDS011;9195;53.176;9.486;2022-12-05T05:35:07;5.20;;;5.00;;
18138;SDS011;9195;53.176;9.486;2022-12-05T05:37:33;5.47;;;5.27;;
18138;SDS011;9195;53.176;9.486;2022-12-05T05:39:59;4.80;;;4.60;;
18138;SDS011;9195;53.176;9.486;2022-12-05T05:42:24;5.00;;;4.80;;
18138;SDS011;9195;53.176;9.486;2022-12-05T05:44:50;4.90;;;4.70;;
18138;SDS011;9195;53.176;9.486;2022-12-05T05:47:15;5.03;;;4.83;;
18138;SDS011;9195;53.176;9.486;2022-12-05T05:49:41;5.10;;;4.90;;
18138;SDS011;9195;53.176;9.486;2022-12-05T05:52:07;5.13;;;4.93;;
18138;SDS011;9195;53.176;9.486;2022-12-05T05:54:32;5.13;;;4.93;;
18138;SDS011;9195;53.176;9.486;2022-12-05T05:56:58;3.90;;;3.80;;
18138;SDS011;9195;53.176;9.486;2022-12-05T05:59:24;4.37;;;4.17;;
18138;SDS011;9195;53.176;9.486;2022-12-05T06:01:49;4.70;;;4.50;;
18138;SDS011;9195;53.176;9.486;2022-12-05T06:04:15;5.83;;;5.63;;
18138;SDS011;9195;53.176;9.486;2022-12-05T06:06:40;5.90;;;5.70;;
18138;SDS011;9195;53.176;9.486;2022-12-05T06:09:06;6.10;;;5.90;;
18138;SDS011;9195;53.176;9.486;2022-12-05T06:11:32;6.70;;;6.40;;
18138;SDS011;9195;53.176;9.486;2022-12-05T06:13:58;5.90;;;5.70;;
18138;SDS011;9195;53.176;9.486;2022-12-05T06:16:26;6.47;;;6.27;;
18138;SDS011;9195;53.176;9.486;2022-12-05T06:18:52;6.70;;;6.40;;
18138;SDS011;9195;53.176;9.486;2022-12-05T06:21:18;5.77;;;5.57;;
18138;SDS011;9195;53.176;9.486;2022-12-05T06:23:44;5.87;;;5.67;;
18138;SDS011;9195;53.176;9.486;2022-12-05T06:26:11;6.10;;;5.90;;
18138;SDS011;9195;53.176;9.486;2022-12-05T06:28:40;6.90;;;6.60;;
18138;SDS011;9195;53.176;9.486;2022-12-05T06:31:16;7.00;;;6.70;;
18138;SDS011;9195;53.176;9.486;2022-12-05T06:33:44;7.10;;;6.80;;
18138;SDS011;9195;53.176;9.486;2022-12-05T06:36:11;6.90;;;6.60;;
18138;SDS011;9195;53.176;9.486;2022-12-05T06:38:39;6.77;;;6.47;;
18138;SDS011;9195;53.176;9.486;2022-12-05T06:41:06;6.40;;;6.20;;
18138;SDS011;9195;53.176;9.486;2022-12-05T06:43:33;7.43;;;7.13;;
18138;SDS011;9195;53.176;9.486;2022-12-05T06:45:59;6.80;;;6.50;;
18138;SDS011;9195;53.176;9.486;2022-12-05T06:48:32;6.10;;;5.90;;
18138;SDS011;9195;53.176;9.486;2022-12-05T06:50:58;5.70;;;5.50;;
18138;SDS011;9195;53.176;9.486;2022-12-05T06:53:24;5.73;;;5.53;;
18138;SDS011;9195;53.176;9.486;2022-12-05T06:55:57;5.83;;;5.63;;
18138;SDS011;9195;53.176;9.486;2022-12-05T06:58:24;5.50;;;5.30;;
18138;SDS011;9195;53.176;9.486;2022-12-05T07:00:50;5.53;;;5.33;;
18138;SDS011;9195;53.176;9.486;2022-12-05T07:03:34;5.07;;;4.87;;
18138;SDS011;9195;53.176;9.486;2022-12-05T07:06:01;5.20;;;5.00;;
18138;SDS011;9195;53.176;9.486;2022-12-05T07:08:28;5.57;;;5.37;;
18138;SDS011;9195;53.176;9.486;2022-12-05T07:10:53;5.40;;;5.20;;
18138;SDS011;9195;53.176;9.486;2022-12-05T07:13:20;5.50;;;5.30;;
18138;SDS011;9195;53.176;9.486;2022-12-05T07:15:46;5.40;;;5.20;;
18138;SDS011;9195;53.176;9.486;2022-12-05T07:18:12;5.40;;;5.20;;
18138;SDS011;9195;53.176;9.486;2022-12-05T07:20:39;5.50;;;5.30;;
18138;SDS011;9195;53.176;9.486;2022-12-05T07:23:04;5.63;;;5.43;;
18138;SDS011;9195;53.176;9.486;2022-12-05T07:25:30;5.90;;;5.70;;
18138;SDS011;9195;53.176;9.486;2022-12-05T07:27:56;5.70;;;5.50;;
18138;SDS011;9195;53.176;9.486;2022-12-05T07:30:21;5.70;;;5.50;;
18138;SDS011;9195;53.176;9.486;2022-12-05T07:32:47;5.90;;;5.70;;
18138;SDS011;9195;53.176;9.486;2022-12-05T07:35:12;6.00;;;5.80;;
18138;SDS011;9195;53.176;9.486;2022-12-05T07:37:38;5.90;;;5.70;;
18138;SDS011;9195;53.176;9.486;2022-12-05T07:40:04;5.70;;;5.50;;
18138;SDS011;9195;53.176;9.486;2022-12-05T07:42:30;6.00;;;5.80;;
18138;SDS011;9195;53.176;9.486;2022-12-05T07:44:55;5.63;;;5.43;;
18138;SDS011;9195;53.176;9.486;2022-12-05T07:47:21;5.20;;;5.00;;
18138;SDS011;9195;53.176;9.486;2022-12-05T07:49:47;5.43;;;5.23;;
18138;SDS011;9195;53.176;9.486;2022-12-05T07:52:12;5.50;;;5.30;;
18138;SDS011;9195;53.176;9.486;2022-12-05T07:54:38;5.10;;;4.90;;
18138;SDS011;9195;53.176;9.486;2022-12-05T07:57:04;5.43;;;5.23;;
18138;SDS011;9195;53.176;9.486;2022-12-05T07:59:29;5.17;;;4.97;;
18138;SDS011;9195;53.176;9.486;2022-12-05T08:01:55;5.87;;;5.67;;
18138;SDS011;9195;53.176;9.486;2022-12-05T08:04:20;5.87;;;5.67;;
18138;SDS011;9195;53.176;9.486;2022-12-05T08:06:46;6.10;;;5.90;;
18138;SDS011;9195;53.176;9.486;2022-12-05T08:09:12;5.80;;;5.60;;
18138;SDS011;9195;53.176;9.486;2022-12-05T08:11:38;7.13;;;6.83;;
18138;SDS011;9195;53.176;9.486;2022-12-05T08:14:05;5.50;;;5.30;;
18138;SDS011;9195;53.176;9.486;2022-12-05T08:16:31;5.00;;;4.80;;
18138;SDS011;9195;53.176;9.486;2022-12-05T08:18:58;5.07;;;4.87;;
18138;SDS011;9195;53.176;9.486;2022-12-05T08:21:31;5.60;;;5.40;;
18138;SDS011;9195;53.176;9.486;2022-12-05T08:23:57;5.40;;;5.20;;
18138;SDS011;9195;53.176;9.486;2022-12-05T08:26:27;5.90;;;5.70;;
18138;SDS011;9195;53.176;9.486;2022-12-05T08:29:04;5.70;;;5.50;;
18138;SDS011;9195;53.176;9.486;2022-12-05T08:31:33;5.50;;;5.30;;
18138;SDS011;9195;53.176;9.486;2022-12-05T08:33:59;5.77;;;5.57;;
18138;SDS011;9195;53.176;9.486;2022-12-05T08:36:28;5.57;;;5.37;;
18138;SDS011;9195;53.176;9.486;2022-12-05T08:39:02;5.93;;;5.73;;
18138;SDS011;9195;53.176;9.486;2022-12-05T08:41:29;5.87;;;5.67;;
18138;SDS011;9195;53.176;9.486;2022-12-05T08:43:56;6.00;;;5.80;;
18138;SDS011;9195;53.176;9.486;2022-12-05T08:46:23;6.30;;;6.10;;
18138;SDS011;9195;53.176;9.486;2022-12-05T08:48:50;6.63;;;6.33;;
18138;SDS011;9195;53.176;9.486;2022-12-05T08:51:15;7.00;;;6.70;;
18138;SDS011;9195;53.176;9.486;2022-12-05T08:53:41;6.80;;;6.50;;
18138;SDS011;9195;53.176;9.486;2022-12-05T08:56:07;6.80;;;6.50;;
18138;SDS011;9195;53.176;9.486;2022-12-05T08:58:34;6.50;;;6.30;;
18138;SDS011;9195;53.176;9.486;2022-12-05T09:01:08;6.20;;;6.00;;
18138;SDS011;9195;53.176;9.486;2022-12-05T09:03:35;5.90;;;5.70;;
18138;SDS011;9195;53.176;9.486;2022-12-05T09:06:08;6.40;;;6.20;;
18138;SDS011;9195;53.176;9.486;2022-12-05T09:08:34;6.10;;;5.90;;
18138;SDS011;9195;53.176;9.486;2022-12-05T09:11:04;6.20;;;6.00;;
18138;SDS011;9195;53.176;9.486;2022-12-05T09:13:31;6.00;;;5.80;;
18138;SDS011;9195;53.176;9.486;2022-12-05T09:15:57;6.13;;;5.93;;
18138;SDS011;9195;53.176;9.486;2022-12-05T09:18:22;5.90;;;5.70;;
18138;SDS011;9195;53.176;9.486;2022-12-05T09:20:48;6.10;;;5.90;;
18138;SDS011;9195;53.176;9.486;2022-12-05T09:23:14;6.37;;;6.17;;
18138;SDS011;9195;53.176;9.486;2022-12-05T09:25:39;6.20;;;6.00;;
18138;SDS011;9195;53.176;9.486;2022-12-05T09:28:05;6.40;;;6.20;;
18138;SDS011;9195;53.176;9.486;2022-12-05T09:30:30;6.40;;;6.20;;
18138;SDS011;9195;53.176;9.486;2022-12-05T09:32:56;6.57;;;6.33;;
18138;SDS011;9195;53.176;9.486;2022-12-05T09:35:22;6.87;;;6.57;;
18138;SDS011;9195;53.176;9.486;2022-12-05T09:37:47;6.67;;;6.40;;
18138;SDS011;9195;53.176;9.486;2022-12-05T09:40:16;6.80;;;6.50;;
18138;SDS011;9195;53.176;9.486;2022-12-05T09:42:47;6.20;;;6.00;;
18138;SDS011;9195;53.176;9.486;2022-12-05T09:48:14;6.63;;;6.40;;
18138;SDS011;9195;53.176;9.486;2022-12-05T09:50:44;6.50;;;6.30;;
18138;SDS011;9195;53.176;9.486;2022-12-05T09:56:12;6.40;;;6.20;;
18138;SDS011;9195;53.176;9.486;2022-12-05T09:58:50;6.40;;;6.20;;
18138;SDS011;9195;53.176;9.486;2022-12-05T10:09:29;5.97;;;5.77;;
18138;SDS011;9195;53.176;9.486;2022-12-05T10:15:37;6.27;;;6.07;;
18138;SDS011;9195;53.176;9.486;2022-12-05T10:23:22;7.20;;;6.90;;
18138;SDS011;9195;53.176;9.486;2022-12-05T10:25:56;7.53;;;7.23;;
18138;SDS011;9195;53.176;9.486;2022-12-05T10:28:32;8.97;;;8.57;;
18138;SDS011;9195;53.176;9.486;2022-12-05T10:31:04;9.00;;;8.60;;
18138;SDS011;9195;53.176;9.486;2022-12-05T10:33:37;9.40;;;9.00;;
18138;SDS011;9195;53.176;9.486;2022-12-05T10:36:09;10.30;;;9.90;;
18138;SDS011;9195;53.176;9.486;2022-12-05T10:38:40;10.20;;;9.80;;
18138;SDS011;9195;53.176;9.486;2022-12-05T10:41:07;10.13;;;9.73;;
18138;SDS011;9195;53.176;9.486;2022-12-05T10:43:35;9.90;;;9.50;;
18138;SDS011;9195;53.176;9.486;2022-12-05T10:46:04;10.20;;;9.80;;
18138;SDS011;9195;53.176;9.486;2022-12-05T10:48:30;10.10;;;9.70;;
18138;SDS011;9195;53.176;9.486;2022-12-05T10:51:01;10.00;;;9.60;;
18138;SDS011;9195;53.176;9.486;2022-12-05T10:53:28;10.47;;;10.07;;
18138;SDS011;9195;53.176;9.486;2022-12-05T10:56:02;11.00;;;10.50;;
18138;SDS011;9195;53.176;9.486;2022-12-05T10:58:28;11.10;;;10.60;;
18138;SDS011;9195;53.176;9.486;2022-12-05T11:00:58;10.40;;;10.00;;
18138;SDS011;9195;53.176;9.486;2022-12-05T11:03:33;9.63;;;9.23;;
18138;SDS011;9195;53.176;9.486;2022-12-05T11:08:52;10.30;;;9.90;;
18138;SDS011;9195;53.176;9.486;2022-12-05T11:11:30;10.43;;;10.03;;
18138;SDS011;9195;53.176;9.486;2022-12-05T11:13:58;10.90;;;10.40;;
18138;SDS011;9195;53.176;9.486;2022-12-05T11:16:34;10.10;;;9.70;;
18138;SDS011;9195;53.176;9.486;2022-12-05T11:19:22;10.17;;;9.77;;
18138;SDS011;9195;53.176;9.486;2022-12-05T11:21:53;10.53;;;10.13;;
18138;SDS011;9195;53.176;9.486;2022-12-05T11:24:20;10.50;;;10.10;;
18138;SDS011;9195;53.176;9.486;2022-12-05T11:27:23;9.70;;;9.30;;
18138;SDS011;9195;53.176;9.486;2022-12-05T11:30:37;9.20;;;8.80;;
18138;SDS011;9195;53.176;9.486;2022-12-05T11:32:38;9.03;;;8.63;;
18138;SDS011;9195;53.176;9.486;2022-12-05T11:37:37;8.23;;;7.93;;
18138;SDS011;9195;53.176;9.486;2022-12-05T11:40:17;8.40;;;8.10;;
18138;SDS011;9195;53.176;9.486;2022-12-05T11:43:34;9.23;;;8.83;;
18138;SDS011;9195;53.176;9.486;2022-12-05T11:52:30;8.30;;;8.00;;
18138;SDS011;9195;53.176;9.486;2022-12-05T11:55:21;7.90;;;7.60;;
18138;SDS011;9195;53.176;9.486;2022-12-05T11:58:09;7.37;;;7.07;;
18138;SDS011;9195;53.176;9.486;2022-12-05T12:00:50;7.70;;;7.40;;
18138;SDS011;9195;53.176;9.486;2022-12-05T12:09:38;9.03;;;8.63;;
18138;SDS011;9195;53.176;9.486;2022-12-05T12:12:10;8.53;;;8.23;;
18138;SDS011;9195;53.176;9.486;2022-12-05T12:14:45;8.07;;;7.77;;
18138;SDS011;9195;53.176;9.486;2022-12-05T12:23:02;8.00;;;7.70;;
18138;SDS011;9195;53.176;9.486;2022-12-05T12:28:36;8.30;;;8.00;;
18138;SDS011;9195;53.176;9.486;2022-12-05T12:33:50;7.90;;;7.60;;
18138;SDS011;9195;53.176;9.486;2022-12-05T12:36:42;7.80;;;7.50;;
18138;SDS011;9195;53.176;9.486;2022-12-05T12:52:48;8.20;;;7.90;;
18138;SDS011;9195;53.176;9.486;2022-12-05T12:59:12;7.90;;;7.60;;
18138;SDS011;9195;53.176;9.486;2022-12-05T13:04:27;7.97;;;7.67;;
18138;SDS011;9195;53.176;9.486;2022-12-05T13:07:18;7.53;;;7.23;;
18138;SDS011;9195;53.176;9.486;2022-12-05T13:09:52;7.40;;;7.10;;
18138;SDS011;9195;53.176;9.486;2022-12-05T13:12:27;7.27;;;6.97;;
18138;SDS011;9195;53.176;9.486;2022-12-05T13:14:57;7.40;;;7.10;;
18138;SDS011;9195;53.176;9.486;2022-12-05T13:17:31;7.13;;;6.83;;
18138;SDS011;9195;53.176;9.486;2022-12-05T13:19:57;7.20;;;6.90;;
18138;SDS011;9195;53.176;9.486;2022-12-05T13:22:24;7.47;;;7.17;;
18138;SDS011;9195;53.176;9.486;2022-12-05T13:24:52;7.90;;;7.60;;
18138;SDS011;9195;53.176;9.486;2022-12-05T13:27:22;8.13;;;7.83;;
18138;SDS011;9195;53.176;9.486;2022-12-05T13:29:52;8.00;;;7.70;;
18138;SDS011;9195;53.176;9.486;2022-12-05T13:32:30;8.23;;;7.93;;
18138;SDS011;9195;53.176;9.486;2022-12-05T13:35:07;8.30;;;8.00;;
18138;SDS011;9195;53.176;9.486;2022-12-05T13:37:35;8.23;;;7.93;;
18138;SDS011;9195;53.176;9.486;2022-12-05T13:40:27;8.30;;;8.00;;
18138;SDS011;9195;53.176;9.486;2022-12-05T13:43:17;8.50;;;8.20;;
18138;SDS011;9195;53.176;9.486;2022-12-05T13:48:22;8.20;;;7.90;;
18138;SDS011;9195;53.176;9.486;2022-12-05T13:53:31;8.10;;;7.80;;
18138;SDS011;9195;53.176;9.486;2022-12-05T13:56:03;7.63;;;7.33;;
18138;SDS011;9195;53.176;9.486;2022-12-05T13:58:45;7.50;;;7.20;;
18138;SDS011;9195;53.176;9.486;2022-12-05T14:12:20;7.80;;;7.50;;
18138;SDS011;9195;53.176;9.486;2022-12-05T14:17:31;7.23;;;6.93;;
18138;SDS011;9195;53.176;9.486;2022-12-05T14:20:21;7.53;;;7.23;;
18138;SDS011;9195;53.176;9.486;2022-12-05T14:28:12;7.00;;;6.70;;
18138;SDS011;9195;53.176;9.486;2022-12-05T14:33:29;6.90;;;6.60;;
18138;SDS011;9195;53.176;9.486;2022-12-05T14:35:56;6.30;;;6.10;;
18138;SDS011;9195;53.176;9.486;2022-12-05T14:38:31;6.07;;;5.87;;
18138;SDS011;9195;53.176;9.486;2022-12-05T14:43:59;7.20;;;6.90;;
18138;SDS011;9195;53.176;9.486;2022-12-05T14:46:30;7.90;;;7.60;;
18138;SDS011;9195;53.176;9.486;2022-12-05T14:48:57;7.50;;;7.20;;
18138;SDS011;9195;53.176;9.486;2022-12-05T14:52:07;6.43;;;6.23;;
18138;SDS011;9195;53.176;9.486;2022-12-05T14:54:36;6.50;;;6.30;;
18138;SDS011;9195;53.176;9.486;2022-12-05T14:57:08;5.97;;;5.77;;
18138;SDS011;9195;53.176;9.486;2022-12-05T14:59:58;5.83;;;5.63;;
18138;SDS011;9195;53.176;9.486;2022-12-05T15:05:10;6.97;;;6.67;;
18138;SDS011;9195;53.176;9.486;2022-12-05T15:07:42;7.00;;;6.70;;
18138;SDS011;9195;53.176;9.486;2022-12-05T15:13:02;7.53;;;7.23;;
18138;SDS011;9195;53.176;9.486;2022-12-05T15:18:33;7.03;;;6.73;;
18138;SDS011;9195;53.176;9.486;2022-12-05T15:21:23;7.00;;;6.70;;
18138;SDS011;9195;53.176;9.486;2022-12-05T15:31:44;6.33;;;6.13;;
18138;SDS011;9195;53.176;9.486;2022-12-05T15:34:28;6.67;;;6.37;;
18138;SDS011;9195;53.176;9.486;2022-12-05T15:36:56;6.50;;;6.30;;
18138;SDS011;9195;53.176;9.486;2022-12-05T15:42:23;6.20;;;6.00;;
18138;SDS011;9195;53.176;9.486;2022-12-05T15:44:51;5.70;;;5.50;;
18138;SDS011;9195;53.176;9.486;2022-12-05T15:47:21;5.10;;;4.90;;
18138;SDS011;9195;53.176;9.486;2022-12-05T15:49:49;5.70;;;5.50;;
18138;SDS011;9195;53.176;9.486;2022-12-05T15:54:50;5.70;;;5.50;;
18138;SDS011;9195;53.176;9.486;2022-12-05T15:57:19;5.97;;;5.77;;
18138;SDS011;9195;53.176;9.486;2022-12-05T15:59:55;5.90;;;5.70;;
18138;SDS011;9195;53.176;9.486;2022-12-05T16:02:35;6.30;;;6.10;;
18138;SDS011;9195;53.176;9.486;2022-12-05T16:05:18;5.90;;;5.70;;
18138;SDS011;9195;53.176;9.486;2022-12-05T16:07:47;5.30;;;5.10;;
18138;SDS011;9195;53.176;9.486;2022-12-05T16:10:15;5.37;;;5.17;;
18138;SDS011;9195;53.176;9.486;2022-12-05T16:12:44;5.60;;;5.40;;
18138;SDS011;9195;53.176;9.486;2022-12-05T16:15:25;5.40;;;5.20;;
18138;SDS011;9195;53.176;9.486;2022-12-05T16:17:55;5.30;;;5.10;;
18138;SDS011;9195;53.176;9.486;2022-12-05T16:23:00;5.33;;;5.13;;
18138;SDS011;9195;53.176;9.486;2022-12-05T16:25:29;4.70;;;4.50;;
18138;SDS011;9195;53.176;9.486;2022-12-05T16:28:11;4.77;;;4.57;;
18138;SDS011;9195;53.176;9.486;2022-12-05T16:30:39;5.00;;;4.80;;
18138;SDS011;9195;53.176;9.486;2022-12-05T16:33:05;5.10;;;4.90;;
18138;SDS011;9195;53.176;9.486;2022-12-05T16:35:40;4.83;;;4.63;;
18138;SDS011;9195;53.176;9.486;2022-12-05T16:40:39;4.70;;;4.50;;
18138;SDS011;9195;53.176;9.486;2022-12-05T16:48:39;5.60;;;5.40;;
18138;SDS011;9195;53.176;9.486;2022-12-05T16:53:38;5.50;;;5.30;;
18138;SDS011;9195;53.176;9.486;2022-12-05T16:56:05;5.40;;;5.20;;
18138;SDS011;9195;53.176;9.486;2022-12-05T16:58:35;6.00;;;5.80;;
18138;SDS011;9195;53.176;9.486;2022-12-05T17:01:03;5.90;;;5.70;;
18138;SDS011;9195;53.176;9.486;2022-12-05T17:03:29;5.30;;;5.10;;
18138;SDS011;9195;53.176;9.486;2022-12-05T17:05:55;5.63;;;5.43;;
18138;SDS011;9195;53.176;9.486;2022-12-05T17:08:22;5.90;;;5.70;;
18138;SDS011;9195;53.176;9.486;2022-12-05T17:10:48;6.23;;;6.03;;
18138;SDS011;9195;53.176;9.486;2022-12-05T17:13:15;6.30;;;6.10;;
18138;SDS011;9195;53.176;9.486;2022-12-05T17:15:42;6.30;;;6.10;;
18138;SDS011;9195;53.176;9.486;2022-12-05T17:18:15;6.70;;;6.40;;
18138;SDS011;9195;53.176;9.486;2022-12-05T17:20:45;6.37;;;6.17;;
18138;SDS011;9195;53.176;9.486;2022-12-05T17:23:17;6.30;;;6.10;;
18138;SDS011;9195;53.176;9.486;2022-12-05T17:25:50;5.90;;;5.70;;
18138;SDS011;9195;53.176;9.486;2022-12-05T17:28:18;5.73;;;5.53;;
18138;SDS011;9195;53.176;9.486;2022-12-05T17:30:44;5.67;;;5.47;;
18138;SDS011;9195;53.176;9.486;2022-12-05T17:33:11;5.50;;;5.30;;
18138;SDS011;9195;53.176;9.486;2022-12-05T17:35:38;5.70;;;5.50;;
18138;SDS011;9195;53.176;9.486;2022-12-05T17:38:04;5.80;;;5.60;;
18138;SDS011;9195;53.176;9.486;2022-12-05T17:40:30;6.10;;;5.90;;
18138;SDS011;9195;53.176;9.486;2022-12-05T17:42:56;5.50;;;5.30;;
18138;SDS011;9195;53.176;9.486;2022-12-05T17:45:22;5.50;;;5.30;;
18138;SDS011;9195;53.176;9.486;2022-12-05T17:47:48;5.47;;;5.27;;
18138;SDS011;9195;53.176;9.486;2022-12-05T17:50:16;5.20;;;5.00;;
18138;SDS011;9195;53.176;9.486;2022-12-05T17:52:45;5.60;;;5.40;;
18138;SDS011;9195;53.176;9.486;2022-12-05T17:55:22;5.43;;;5.23;;
18138;SDS011;9195;53.176;9.486;2022-12-05T17:57:49;5.80;;;5.60;;
18138;SDS011;9195;53.176;9.486;2022-12-05T18:00:15;5.50;;;5.30;;
18138;SDS011;9195;53.176;9.486;2022-12-05T18:02:42;6.03;;;5.83;;
18138;SDS011;9195;53.176;9.486;2022-12-05T18:05:10;5.80;;;5.60;;
18138;SDS011;9195;53.176;9.486;2022-12-05T18:07:36;5.37;;;5.17;;
18138;SDS011;9195;53.176;9.486;2022-12-05T18:10:07;5.60;;;5.40;;
18138;SDS011;9195;53.176;9.486;2022-12-05T18:12:34;5.40;;;5.20;;
18138;SDS011;9195;53.176;9.486;2022-12-05T18:15:00;5.50;;;5.30;;
18138;SDS011;9195;53.176;9.486;2022-12-05T18:17:26;6.03;;;5.83;;
18138;SDS011;9195;53.176;9.486;2022-12-05T18:19:52;5.93;;;5.73;;
18138;SDS011;9195;53.176;9.486;2022-12-05T18:22:25;5.80;;;5.60;;
18138;SDS011;9195;53.176;9.486;2022-12-05T18:24:52;6.93;;;6.63;;
18138;SDS011;9195;53.176;9.486;2022-12-05T18:27:18;6.80;;;6.50;;
18138;SDS011;9195;53.176;9.486;2022-12-05T18:29:47;6.80;;;6.50;;